Time;durP1;ratioP1;P1;durP2;ratioP2;P2;SDS_P1;SDS_P2;PMS_P1;PMS_P2;Temp;Humidity;BMP_temperature;BMP_pressure;BME280_temperature;BME280_humidity;BME280_pressure;Samples;Min_cycle;Max_cycle;Signal;HPM_P1;HPM_P2
2021/04/05 00:02:13;;;;;;;;;13.00;12.00;;;;;;;;3725130;38;18019;-52
2021/04/05 00:04:39;;;;;;;;;18.75;12.00;;;;;;;;3725119;37;18010;-52
2021/04/05 00:07:05;;;;;;;;;14.25;13.25;;;;;;;;3725231;37;18008;-51
2021/04/05 00:09:31;;;;;;;;;14.00;12.75;;;;;;;;3725274;38;18005;-52
2021/04/05 00:11:59;;;;;;;;;13.25;13.00;;;;;;;;3725095;38;20122;-52
2021/04/05 00:14:25;;;;;;;;;13.50;11.75;;;;;;;;3724897;38;17996;-51
2021/04/05 00:16:51;;;;;;;;;12.75;12.75;;;;;;;;3724485;38;20100;-52
2021/04/05 00:19:16;;;;;;;;;17.25;16.75;;;;;;;;3724737;38;17999;-51
2021/04/05 00:21:42;;;;;;;;;8.25;8.25;;;;;;;;3724636;37;18011;-50
2021/04/05 00:24:08;;;;;;;;;16.00;15.00;;;;;;;;3724537;38;18006;-50
2021/04/05 00:26:34;;;;;;;;;15.75;15.00;;;;;;;;3724686;38;18006;-51
2021/04/05 00:29:00;;;;;;;;;19.50;17.50;;;;;;;;3724617;38;20157;-52
2021/04/05 00:31:25;;;;;;;;;17.75;17.50;;;;;;;;3724672;37;17991;-51
2021/04/05 00:33:51;;;;;;;;;14.00;12.50;;;;;;;;3724959;38;17964;-51
2021/04/05 00:36:17;;;;;;;;;15.25;12.75;;;;;;;;3725246;37;17987;-51
2021/04/05 00:38:42;;;;;;;;;16.00;16.00;;;;;;;;3725323;37;17960;-51
2021/04/05 00:41:12;;;;;;;;;15.75;13.25;;;;;;;;3725253;38;17981;-51
2021/04/05 00:43:39;;;;;;;;;15.00;12.75;;;;;;;;3725262;38;17972;-50
2021/04/05 00:46:06;;;;;;;;;16.75;15.50;;;;;;;;3725244;37;20069;-50
2021/04/05 00:48:33;;;;;;;;;19.00;16.00;;;;;;;;3725131;38;20079;-51
2021/04/05 00:51:19;;;;;;;;;15.75;13.00;;;;;;;;3724809;37;20106;-51
2021/04/05 00:53:45;;;;;;;;;14.75;14.75;;;;;;;;3725133;38;20107;-51
2021/04/05 00:56:12;;;;;;;;;16.25;16.25;;;;;;;;3725223;38;20083;-51
2021/04/05 00:58:38;;;;;;;;;21.00;16.50;;;;;;;;3725138;38;20074;-50
2021/04/05 01:01:06;;;;;;;;;14.75;13.75;;;;;;;;3725171;38;20142;-50
2021/04/05 01:03:33;;;;;;;;;15.75;15.75;;;;;;;;3724762;38;20093;-50
2021/04/05 01:06:01;;;;;;;;;17.75;16.25;;;;;;;;3724963;37;20071;-50
2021/04/05 01:08:27;;;;;;;;;17.75;15.75;;;;;;;;3725111;37;20124;-51
2021/04/05 01:10:53;;;;;;;;;15.25;13.50;;;;;;;;3725171;37;20096;-51
2021/04/05 01:13:19;;;;;;;;;14.25;13.25;;;;;;;;3725338;38;17922;-51
2021/04/05 01:15:45;;;;;;;;;18.50;16.75;;;;;;;;3725328;38;17916;-50
2021/04/05 01:18:11;;;;;;;;;16.00;15.00;;;;;;;;3724975;37;20066;-50
2021/04/05 01:20:37;;;;;;;;;14.00;14.00;;;;;;;;3725192;37;17917;-50
2021/04/05 01:23:04;;;;;;;;;19.50;19.50;;;;;;;;3725087;38;20053;-50
2021/04/05 01:25:30;;;;;;;;;21.75;18.25;;;;;;;;3724890;37;17917;-51
2021/04/05 01:27:57;;;;;;;;;20.50;19.00;;;;;;;;3725112;37;20034;-51
2021/04/05 01:30:28;;;;;;;;;24.25;20.50;;;;;;;;3724957;37;17927;-51
2021/04/05 01:33:04;;;;;;;;;20.75;19.25;;;;;;;;3725239;38;20043;-51
2021/04/05 01:35:32;;;;;;;;;21.25;19.50;;;;;;;;3725253;38;20031;-52
2021/04/05 01:38:01;;;;;;;;;27.75;22.25;;;;;;;;3725147;38;20026;-51
2021/04/05 01:40:27;;;;;;;;;23.25;21.50;;;;;;;;3725391;37;20324;-50
2021/04/05 01:42:52;;;;;;;;;21.25;20.00;;;;;;;;3725356;37;20014;-51
2021/04/05 01:45:18;;;;;;;;;23.50;19.50;;;;;;;;3725303;38;17903;-52
2021/04/05 01:47:44;;;;;;;;;21.00;19.25;;;;;;;;3725316;37;17876;-51
2021/04/05 01:50:11;;;;;;;;;22.00;21.25;;;;;;;;3725329;37;17881;-51
2021/04/05 01:52:41;;;;;;;;;19.75;18.25;;;;;;;;3725416;38;19990;-51
2021/04/05 01:55:09;;;;;;;;;18.50;18.50;;;;;;;;3725206;38;20018;-51
2021/04/05 01:57:35;;;;;;;;;23.50;23.25;;;;;;;;3724852;37;20002;-51
2021/04/05 02:00:01;;;;;;;;;21.50;20.25;;;;;;;;3725202;37;20042;-51
2021/04/05 02:02:28;;;;;;;;;24.50;22.00;;;;;;;;3725277;37;20012;-50
2021/04/05 02:04:57;;;;;;;;;19.75;18.00;;;;;;;;3725256;37;17890;-51
2021/04/05 02:07:23;;;;;;;;;19.25;19.25;;;;;;;;3724708;37;20117;-50
2021/04/05 02:09:49;;;;;;;;;18.00;17.25;;;;;;;;3725166;37;20004;-50
2021/04/05 02:12:15;;;;;;;;;19.25;18.25;;;;;;;;3725197;38;17866;-50
2021/04/05 02:14:41;;;;;;;;;17.50;16.25;;;;;;;;3725162;37;19973;-51
2021/04/05 02:17:07;;;;;;;;;1.50;0.75;;;;;;;;3725341;38;17832;-50
2021/04/05 02:19:33;;;;;;;;;14.75;14.50;;;;;;;;3725412;38;17847;-52
2021/04/05 02:22:00;;;;;;;;;14.75;10.25;;;;;;;;3725366;38;19970;-52
2021/04/05 02:24:26;;;;;;;;;19.00;17.25;;;;;;;;3725435;37;17850;-52
2021/04/05 02:26:52;;;;;;;;;12.25;12.25;;;;;;;;3725377;37;19976;-50
2021/04/05 02:29:19;;;;;;;;;16.00;16.00;;;;;;;;3725317;37;17821;-53
2021/04/05 02:31:45;;;;;;;;;14.75;14.75;;;;;;;;3725333;37;19968;-52
2021/04/05 02:34:12;;;;;;;;;15.50;13.50;;;;;;;;3725325;37;19951;-50
2021/04/05 02:36:40;;;;;;;;;19.25;19.00;;;;;;;;3725120;38;17812;-51
2021/04/05 02:39:07;;;;;;;;;16.25;15.50;;;;;;;;3725232;38;19970;-50
2021/04/05 02:41:34;;;;;;;;;15.00;15.00;;;;;;;;3725208;37;19946;-51
2021/04/05 02:44:01;;;;;;;;;14.25;14.00;;;;;;;;3725320;38;19928;-50
2021/04/05 02:46:28;;;;;;;;;20.75;17.50;;;;;;;;3725231;37;19945;-50
2021/04/05 02:48:55;;;;;;;;;15.25;9.75;;;;;;;;3724819;37;19930;-51
2021/04/05 02:51:21;;;;;;;;;17.50;16.75;;;;;;;;3725305;37;19921;-51
2021/04/05 02:53:49;;;;;;;;;18.00;17.00;;;;;;;;3725323;38;19947;-51
2021/04/05 02:56:15;;;;;;;;;10.50;8.75;;;;;;;;3725285;37;19923;-51
2021/04/05 02:58:43;;;;;;;;;20.75;19.50;;;;;;;;3725230;37;19912;-50
2021/04/05 03:01:09;;;;;;;;;22.50;21.25;;;;;;;;3725211;38;17805;-52
2021/04/05 03:03:39;;;;;;;;;17.00;16.25;;;;;;;;3725224;38;19903;-50
2021/04/05 03:06:05;;;;;;;;;21.75;18.50;;;;;;;;3725197;37;19917;-50
2021/04/05 03:08:31;;;;;;;;;19.25;17.00;;;;;;;;3725221;38;19923;-52
2021/04/05 03:10:57;;;;;;;;;16.00;15.50;;;;;;;;3725166;38;19929;-53
2021/04/05 03:13:24;;;;;;;;;21.50;16.00;;;;;;;;3725008;37;17787;-52
2021/04/05 03:15:50;;;;;;;;;25.50;22.75;;;;;;;;3725304;37;17795;-51
2021/04/05 03:18:16;;;;;;;;;24.50;23.00;;;;;;;;3725091;37;19951;-52
2021/04/05 03:20:43;;;;;;;;;27.25;22.25;;;;;;;;3725231;37;19950;-51
2021/04/05 03:23:09;;;;;;;;;18.25;18.25;;;;;;;;3725272;37;19934;-51
2021/04/05 03:25:35;;;;;;;;;21.25;19.25;;;;;;;;3725363;37;19923;-51
2021/04/05 03:28:01;;;;;;;;;19.75;18.75;;;;;;;;3725180;37;19913;-52
2021/04/05 03:30:31;;;;;;;;;20.00;19.00;;;;;;;;3725375;38;17750;-51
2021/04/05 03:32:59;;;;;;;;;21.75;18.50;;;;;;;;3725530;38;17757;-52
2021/04/05 03:35:30;;;;;;;;;16.25;13.75;;;;;;;;3725319;38;19913;-51
2021/04/05 03:37:56;;;;;;;;;20.75;12.50;;;;;;;;3725366;38;19927;-52
2021/04/05 03:40:23;;;;;;;;;19.50;17.00;;;;;;;;3725177;38;19880;-51
2021/04/05 03:42:55;;;;;;;;;19.75;18.25;;;;;;;;3725320;38;19928;-50
2021/04/05 03:45:29;;;;;;;;;16.75;12.50;;;;;;;;3725251;38;19918;-52
2021/04/05 03:48:05;;;;;;;;;14.50;12.75;;;;;;;;3725416;37;19893;-52
2021/04/05 03:50:39;;;;;;;;;23.00;20.25;;;;;;;;3725138;38;19876;-51
2021/04/05 03:53:15;;;;;;;;;20.00;16.75;;;;;;;;3725192;37;19880;-51
2021/04/05 03:55:41;;;;;;;;;30.75;24.75;;;;;;;;3725441;37;19908;-52
2021/04/05 03:58:09;;;;;;;;;24.75;22.75;;;;;;;;3725042;38;19892;-51
2021/04/05 04:00:35;;;;;;;;;32.75;27.75;;;;;;;;3725129;38;19890;-51
2021/04/05 04:03:02;;;;;;;;;23.25;21.00;;;;;;;;3725241;37;19900;-51
2021/04/05 04:05:35;;;;;;;;;48.50;37.50;;;;;;;;3725041;37;19877;-51
2021/04/05 04:08:03;;;;;;;;;38.00;32.00;;;;;;;;3724975;37;19893;-50
2021/04/05 04:10:31;;;;;;;;;37.00;35.75;;;;;;;;3725215;38;19871;-51
2021/04/05 04:12:58;;;;;;;;;48.00;39.00;;;;;;;;3725231;37;19880;-50
2021/04/05 04:15:25;;;;;;;;;31.50;31.00;;;;;;;;3725366;37;19870;-50
2021/04/05 04:17:52;;;;;;;;;44.25;39.75;;;;;;;;3724929;37;19879;-51
2021/04/05 04:20:18;;;;;;;;;48.50;40.75;;;;;;;;3725141;38;19853;-51
2021/04/05 04:22:44;;;;;;;;;64.25;50.50;;;;;;;;3725257;37;19868;-52
2021/04/05 04:25:11;;;;;;;;;35.25;35.00;;;;;;;;3725472;38;19879;-50
2021/04/05 04:27:37;;;;;;;;;62.00;52.00;;;;;;;;3725452;38;19845;-52
2021/04/05 04:30:04;;;;;;;;;59.50;46.50;;;;;;;;3725216;38;19858;-51
2021/04/05 04:32:30;;;;;;;;;47.00;40.00;;;;;;;;3725172;38;19852;-51
2021/04/05 04:34:56;;;;;;;;;32.00;27.50;;;;;;;;3725208;37;19841;-51
2021/04/05 04:37:22;;;;;;;;;30.75;29.25;;;;;;;;3725129;37;17669;-50
2021/04/05 04:39:48;;;;;;;;;32.50;29.50;;;;;;;;3725202;37;17671;-51
2021/04/05 04:42:15;;;;;;;;;51.75;42.25;;;;;;;;3725218;37;19922;-50
2021/04/05 04:44:41;;;;;;;;;33.00;30.75;;;;;;;;3725103;38;17652;-50
2021/04/05 04:47:07;;;;;;;;;21.00;20.00;;;;;;;;3725110;37;19811;-50
2021/04/05 04:49:36;;;;;;;;;31.75;28.25;;;;;;;;3724913;37;17695;-52
2021/04/05 04:52:02;;;;;;;;;28.00;25.75;;;;;;;;3725420;38;19975;-52
2021/04/05 04:54:28;;;;;;;;;37.75;28.50;;;;;;;;3725508;38;17635;-52
2021/04/05 04:56:55;;;;;;;;;36.50;33.50;;;;;;;;3725478;38;17652;-53
2021/04/05 04:59:22;;;;;;;;;35.50;31.75;;;;;;;;3724960;38;19798;-54
2021/04/05 05:01:48;;;;;;;;;38.25;34.25;;;;;;;;3725278;38;19821;-54
2021/04/05 05:04:24;;;;;;;;;31.75;29.50;;;;;;;;3725324;38;19822;-52
2021/04/05 05:06:52;;;;;;;;;34.50;32.00;;;;;;;;3725216;37;19785;-53
2021/04/05 05:09:18;;;;;;;;;35.75;31.25;;;;;;;;3725528;37;19806;-54
2021/04/05 05:11:44;;;;;;;;;38.75;38.75;;;;;;;;3725455;38;19807;-52
2021/04/05 05:14:12;;;;;;;;;44.00;41.75;;;;;;;;3725309;37;19788;-53
2021/04/05 05:16:38;;;;;;;;;48.75;42.00;;;;;;;;3725242;38;19806;-52
2021/04/05 05:19:04;;;;;;;;;50.50;44.50;;;;;;;;3725317;37;19785;-52
2021/04/05 05:21:36;;;;;;;;;36.75;34.50;;;;;;;;3724819;38;19766;-52
2021/04/05 05:24:05;;;;;;;;;47.75;42.00;;;;;;;;3725349;38;19771;-52
2021/04/05 05:26:32;;;;;;;;;44.00;37.75;;;;;;;;3725088;37;19883;-51
2021/04/05 05:28:57;;;;;;;;;49.75;38.75;;;;;;;;3725169;37;19768;-52
2021/04/05 05:31:23;;;;;;;;;45.75;40.50;;;;;;;;3725302;37;19763;-51
2021/04/05 05:33:49;;;;;;;;;29.50;29.25;;;;;;;;3725270;37;17579;-53
2021/04/05 05:36:16;;;;;;;;;38.50;37.75;;;;;;;;3725179;37;17635;-54
2021/04/05 05:38:41;;;;;;;;;43.50;36.75;;;;;;;;3725233;38;17592;-53
2021/04/05 05:41:13;;;;;;;;;31.00;27.00;;;;;;;;3725315;37;19757;-53
2021/04/05 05:43:41;;;;;;;;;40.25;37.25;;;;;;;;3725370;37;17593;-53
2021/04/05 05:46:10;;;;;;;;;45.00;33.50;;;;;;;;3725233;37;19738;-52
2021/04/05 05:48:55;;;;;;;;;29.50;27.25;;;;;;;;3725233;38;19751;-52
2021/04/05 05:51:32;;;;;;;;;34.50;29.75;;;;;;;;3725236;37;19812;-53
2021/04/05 05:54:02;;;;;;;;;35.25;27.50;;;;;;;;3725487;37;19741;-54
2021/04/05 05:56:42;;;;;;;;;23.50;22.75;;;;;;;;3725248;37;19734;-55
2021/04/05 05:59:18;;;;;;;;;25.50;22.00;;;;;;;;3724916;38;19703;-54
2021/04/05 06:02:07;;;;;;;;;33.00;27.75;;;;;;;;3725235;37;19706;-54
2021/04/05 06:04:40;;;;;;;;;24.25;24.00;;;;;;;;3725664;38;19706;-52
2021/04/05 06:07:31;;;;;;;;;37.00;31.50;;;;;;;;3725454;38;19680;-55
2021/04/05 06:10:16;;;;;;;;;28.50;25.75;;;;;;;;3725247;37;19684;-53
2021/04/05 06:13:03;;;;;;;;;37.25;33.75;;;;;;;;3725556;38;19712;-54
2021/04/05 06:15:30;;;;;;;;;41.00;33.00;;;;;;;;3725619;38;19672;-54
2021/04/05 06:18:19;;;;;;;;;32.00;31.50;;;;;;;;3725456;37;19723;-53
2021/04/05 06:21:22;;;;;;;;;46.00;41.50;;;;;;;;3725538;37;19691;-54
2021/04/05 06:23:53;;;;;;;;;41.75;37.75;;;;;;;;3725280;38;19724;-54
2021/04/05 06:26:25;;;;;;;;;41.00;37.00;;;;;;;;3725726;37;19699;-54
2021/04/05 06:29:23;;;;;;;;;41.75;38.00;;;;;;;;3725416;38;19722;-53
2021/04/05 06:31:56;;;;;;;;;37.75;33.50;;;;;;;;3725639;37;19723;-53
2021/04/05 06:34:54;;;;;;;;;36.25;35.00;;;;;;;;3725710;37;19715;-53
2021/04/05 06:37:38;;;;;;;;;37.50;32.00;;;;;;;;3725842;37;19642;-54
2021/04/05 06:40:10;;;;;;;;;30.75;29.75;;;;;;;;3725825;38;19721;-52
2021/04/05 06:43:04;;;;;;;;;29.00;28.50;;;;;;;;3725698;37;19643;-53
2021/04/05 06:45:43;;;;;;;;;39.25;35.75;;;;;;;;3725750;37;19648;-52
2021/04/05 06:48:34;;;;;;;;;39.00;35.00;;;;;;;;3725653;37;19670;-52
2021/04/05 06:51:20;;;;;;;;;38.50;35.25;;;;;;;;3725614;38;19675;-52
2021/04/05 06:54:06;;;;;;;;;34.50;32.50;;;;;;;;3725600;38;20053;-53
2021/04/05 06:56:51;;;;;;;;;35.00;33.50;;;;;;;;3725822;37;19662;-54
2021/04/05 06:59:43;;;;;;;;;36.00;33.50;;;;;;;;3726730;37;19783;-52
2021/04/05 07:02:29;;;;;;;;;29.00;28.50;;;;;;;;3725244;38;20628;-53
2021/04/05 07:05:13;;;;;;;;;33.00;29.50;;;;;;;;3724551;37;20600;-53
2021/04/05 07:07:47;;;;;;;;;34.75;33.00;;;;;;;;3725029;38;20632;-50
2021/04/05 07:10:30;;;;;;;;;32.50;30.50;;;;;;;;3725226;37;19722;-53
2021/04/05 07:13:27;;;;;;;;;29.75;25.25;;;;;;;;3725680;38;20622;-53
2021/04/05 07:16:11;;;;;;;;;31.75;30.50;;;;;;;;3725482;38;20598;-51
2021/04/05 07:19:15;;;;;;;;;30.00;27.25;;;;;;;;3725262;37;20728;-52
2021/04/05 07:21:50;;;;;;;;;35.00;30.50;;;;;;;;3724849;37;19612;-52
2021/04/05 07:24:25;;;;;;;;;38.00;36.00;;;;;;;;3725065;38;20607;-52
2021/04/05 07:27:08;;;;;;;;;33.00;30.50;;;;;;;;3725125;37;20606;-51
2021/04/05 07:29:52;;;;;;;;;36.75;33.25;;;;;;;;3725071;37;20668;-51
2021/04/05 07:32:36;;;;;;;;;29.00;27.25;;;;;;;;3725288;37;20616;-50
2021/04/05 07:35:07;;;;;;;;;28.75;28.25;;;;;;;;3725570;37;20596;-51
2021/04/05 07:37:35;;;;;;;;;29.25;27.50;;;;;;;;3725522;37;20561;-51
2021/04/05 07:40:11;;;;;;;;;28.50;26.00;;;;;;;;3725617;37;20658;-51
2021/04/05 07:42:49;;;;;;;;;24.50;22.75;;;;;;;;3725587;37;20545;-53
2021/04/05 07:45:19;;;;;;;;;19.00;19.00;;;;;;;;3725602;37;20572;-50
2021/04/05 07:47:54;;;;;;;;;18.00;18.00;;;;;;;;3725423;38;20541;-51
2021/04/05 07:50:38;;;;;;;;;17.25;16.50;;;;;;;;3725604;37;20561;-51
2021/04/05 07:53:22;;;;;;;;;15.75;14.50;;;;;;;;3725148;37;20534;-55
2021/04/05 07:55:48;;;;;;;;;19.25;19.25;;;;;;;;3725504;38;20578;-56
2021/04/05 07:58:40;;;;;;;;;14.00;13.25;;;;;;;;3725633;38;20523;-50
2021/04/05 08:01:12;;;;;;;;;18.00;16.00;;;;;;;;3725538;37;20514;-53
2021/04/05 08:04:03;;;;;;;;;17.00;16.75;;;;;;;;3725644;37;20518;-50
2021/04/05 08:06:36;;;;;;;;;21.25;21.00;;;;;;;;3725573;38;20539;-51
2021/04/05 08:09:08;;;;;;;;;17.50;16.00;;;;;;;;3725625;37;20511;-51
2021/04/05 08:11:53;;;;;;;;;24.75;19.25;;;;;;;;3725334;37;20516;-50
2021/04/05 08:14:40;;;;;;;;;18.75;18.75;;;;;;;;3725606;37;20544;-51
2021/04/05 08:17:20;;;;;;;;;13.50;13.25;;;;;;;;3725113;38;20524;-51
2021/04/05 08:20:11;;;;;;;;;13.50;13.25;;;;;;;;3725266;38;20495;-50
2021/04/05 08:22:43;;;;;;;;;15.00;14.00;;;;;;;;3725425;38;20519;-50
2021/04/05 08:25:21;;;;;;;;;13.00;12.50;;;;;;;;3725300;38;20496;-50
2021/04/05 08:28:24;;;;;;;;;14.75;14.00;;;;;;;;3725509;38;20509;-52
2021/04/05 08:31:16;;;;;;;;;11.75;11.00;;;;;;;;3725310;38;20511;-51
2021/04/05 08:34:16;;;;;;;;;15.00;13.25;;;;;;;;3725071;37;20482;-50
2021/04/05 08:37:01;;;;;;;;;8.50;8.00;;;;;;;;3725411;38;20460;-51
2021/04/05 08:39:45;;;;;;;;;12.75;12.00;;;;;;;;3725429;37;20492;-50
2021/04/05 08:42:49;;;;;;;;;17.00;14.75;;;;;;;;3725459;37;20510;-51
2021/04/05 08:45:25;;;;;;;;;13.75;13.00;;;;;;;;3725309;38;20479;-52
2021/04/05 08:48:13;;;;;;;;;15.50;12.75;;;;;;;;3725260;37;20478;-50
2021/04/05 08:50:40;;;;;;;;;12.25;10.25;;;;;;;;3725369;38;20457;-51
2021/04/05 08:53:08;;;;;;;;;15.00;14.00;;;;;;;;3725279;37;20449;-53
2021/04/05 08:55:34;;;;;;;;;16.25;15.25;;;;;;;;3725305;38;20474;-51
2021/04/05 08:58:12;;;;;;;;;12.75;12.25;;;;;;;;3725258;37;20436;-53
2021/04/05 09:00:41;;;;;;;;;14.25;13.50;;;;;;;;3725306;38;20428;-51
2021/04/05 09:03:08;;;;;;;;;15.50;14.25;;;;;;;;3725243;38;20527;-50
2021/04/05 09:05:36;;;;;;;;;14.00;13.25;;;;;;;;3725337;38;20434;-51
2021/04/05 09:08:04;;;;;;;;;13.25;12.50;;;;;;;;3725298;37;20384;-50
2021/04/05 09:10:34;;;;;;;;;22.50;20.25;;;;;;;;3725253;38;20443;-51
2021/04/05 09:13:05;;;;;;;;;14.50;13.75;;;;;;;;3725170;38;20445;-50
2021/04/05 09:15:50;;;;;;;;;14.50;13.50;;;;;;;;3725283;37;20433;-54
2021/04/05 09:18:42;;;;;;;;;14.25;13.75;;;;;;;;3725237;37;20421;-50
2021/04/05 09:21:15;;;;;;;;;16.50;13.75;;;;;;;;3725350;37;20425;-50
2021/04/05 09:23:58;;;;;;;;;10.75;10.75;;;;;;;;3725527;37;20395;-49
2021/04/05 09:26:42;;;;;;;;;11.25;7.50;;;;;;;;3725430;38;20427;-50
2021/04/05 09:29:11;;;;;;;;;15.25;13.25;;;;;;;;3725633;37;20420;-50
2021/04/05 09:31:55;;;;;;;;;15.00;13.75;;;;;;;;3725331;37;20401;-52
2021/04/05 09:34:41;;;;;;;;;13.75;11.00;;;;;;;;3725425;37;20428;-50
2021/04/05 09:37:22;;;;;;;;;11.00;10.75;;;;;;;;3725341;37;20395;-51
2021/04/05 09:40:05;;;;;;;;;14.50;12.25;;;;;;;;3725370;37;20338;-53
2021/04/05 09:42:35;;;;;;;;;11.75;11.00;;;;;;;;3725339;37;20394;-51
2021/04/05 09:45:38;;;;;;;;;15.75;12.50;;;;;;;;3725153;37;20446;-50
2021/04/05 09:48:22;;;;;;;;;12.00;11.25;;;;;;;;3725252;37;20367;-51
2021/04/05 09:51:29;;;;;;;;;13.75;13.75;;;;;;;;3725282;38;20443;-53
2021/04/05 09:54:05;;;;;;;;;16.00;14.25;;;;;;;;3725454;37;20382;-50
2021/04/05 09:56:33;;;;;;;;;13.75;13.75;;;;;;;;3725497;38;20375;-51
2021/04/05 09:59:09;;;;;;;;;12.00;11.00;;;;;;;;3725415;37;20351;-53
2021/04/05 10:01:36;;;;;;;;;15.25;14.50;;;;;;;;3725350;37;20352;-49
2021/04/05 10:04:08;;;;;;;;;30.25;26.75;;;;;;;;3725353;38;20343;-53
2021/04/05 10:06:35;;;;;;;;;15.25;14.00;;;;;;;;3725412;37;20351;-55
2021/04/05 10:09:04;;;;;;;;;12.75;12.75;;;;;;;;3725497;38;20350;-56
2021/04/05 10:11:32;;;;;;;;;14.75;13.50;;;;;;;;3725566;37;20352;-53
2021/04/05 10:14:00;;;;;;;;;17.00;14.25;;;;;;;;3725573;37;20360;-49
2021/04/05 10:16:26;;;;;;;;;17.00;15.00;;;;;;;;3725392;37;20317;-50
2021/04/05 10:18:56;;;;;;;;;18.75;14.75;;;;;;;;3725356;38;20352;-50
2021/04/05 10:21:23;;;;;;;;;17.50;15.00;;;;;;;;3725388;37;18217;-49
2021/04/05 10:23:49;;;;;;;;;17.50;15.25;;;;;;;;3725345;38;20350;-50
2021/04/05 10:26:16;;;;;;;;;12.75;12.75;;;;;;;;3725590;38;20335;-52
2021/04/05 10:28:43;;;;;;;;;15.50;14.50;;;;;;;;3725527;37;20317;-50
2021/04/05 10:31:13;;;;;;;;;14.75;13.75;;;;;;;;3725340;38;20304;-51
2021/04/05 10:33:41;;;;;;;;;18.75;17.75;;;;;;;;3725453;38;20333;-49
2021/04/05 10:36:08;;;;;;;;;19.75;18.00;;;;;;;;3725441;38;20311;-50
2021/04/05 10:38:39;;;;;;;;;15.50;14.50;;;;;;;;3725581;37;20337;-53
2021/04/05 10:41:06;;;;;;;;;19.50;19.00;;;;;;;;3725316;38;20310;-50
2021/04/05 10:43:38;;;;;;;;;16.00;13.25;;;;;;;;3725472;37;20322;-53
2021/04/05 10:46:22;;;;;;;;;15.50;14.00;;;;;;;;3725617;38;20318;-50
2021/04/05 10:48:53;;;;;;;;;14.25;13.50;;;;;;;;3725365;37;20300;-53
2021/04/05 10:51:30;;;;;;;;;13.25;13.25;;;;;;;;3725374;38;20287;-54
2021/04/05 10:54:01;;;;;;;;;14.50;14.50;;;;;;;;3725358;37;20298;-50
2021/04/05 10:56:27;;;;;;;;;16.50;16.50;;;;;;;;3725092;37;20289;-50
2021/04/05 10:59:11;;;;;;;;;12.00;11.75;;;;;;;;3725444;37;20278;-51
2021/04/05 11:01:46;;;;;;;;;10.00;10.00;;;;;;;;3725647;38;20320;-52
2021/04/05 11:04:13;;;;;;;;;10.75;10.00;;;;;;;;3725194;38;20281;-53
2021/04/05 11:06:40;;;;;;;;;10.25;10.25;;;;;;;;3725186;37;20273;-53
2021/04/05 11:09:07;;;;;;;;;12.25;11.50;;;;;;;;3725269;38;20277;-51
2021/04/05 11:11:34;;;;;;;;;12.00;11.25;;;;;;;;3725336;37;20278;-52
2021/04/05 11:14:03;;;;;;;;;11.00;10.50;;;;;;;;3725259;37;20283;-50
2021/04/05 11:16:29;;;;;;;;;12.00;11.25;;;;;;;;3725387;37;20238;-51
2021/04/05 11:18:59;;;;;;;;;12.25;11.00;;;;;;;;3725195;37;20241;-50
2021/04/05 11:21:40;;;;;;;;;12.50;11.50;;;;;;;;3725237;37;20246;-51
2021/04/05 11:24:08;;;;;;;;;11.75;11.00;;;;;;;;3725355;37;20249;-50
2021/04/05 11:26:35;;;;;;;;;14.00;13.00;;;;;;;;3725353;37;20329;-50
2021/04/05 11:29:03;;;;;;;;;12.25;11.00;;;;;;;;3725243;38;20265;-50
2021/04/05 11:31:38;;;;;;;;;12.00;11.25;;;;;;;;3725323;37;20240;-51
2021/04/05 11:34:04;;;;;;;;;11.75;11.75;;;;;;;;3725214;37;20230;-51
2021/04/05 11:36:40;;;;;;;;;17.50;16.00;;;;;;;;3725170;37;20233;-50
2021/04/05 11:39:09;;;;;;;;;14.50;13.00;;;;;;;;3725256;37;20253;-51
2021/04/05 11:41:35;;;;;;;;;13.25;12.50;;;;;;;;3725316;38;20221;-50
2021/04/05 11:44:04;;;;;;;;;12.25;12.00;;;;;;;;3725441;38;20262;-54
2021/04/05 11:46:32;;;;;;;;;15.50;14.75;;;;;;;;3725347;37;20227;-50
2021/04/05 11:49:05;;;;;;;;;14.00;13.75;;;;;;;;3725718;38;20229;-55
2021/04/05 11:51:35;;;;;;;;;17.00;14.50;;;;;;;;3725261;38;20216;-50
2021/04/05 11:54:02;;;;;;;;;14.00;12.00;;;;;;;;3725368;37;20246;-51
2021/04/05 11:56:30;;;;;;;;;13.00;13.00;;;;;;;;3725273;38;20216;-51
2021/04/05 11:59:18;;;;;;;;;13.75;13.50;;;;;;;;3725335;38;20232;-49
2021/04/05 12:02:01;;;;;;;;;14.25;13.75;;;;;;;;3725432;37;20205;-51
2021/04/05 12:04:47;;;;;;;;;15.25;14.75;;;;;;;;3725420;38;20233;-50
2021/04/05 12:07:17;;;;;;;;;16.00;15.00;;;;;;;;3725315;37;20203;-51
2021/04/05 12:09:55;;;;;;;;;13.75;12.25;;;;;;;;3725145;38;20187;-50
2021/04/05 12:12:23;;;;;;;;;14.00;14.00;;;;;;;;3725333;37;20160;-50
2021/04/05 12:14:51;;;;;;;;;18.50;18.50;;;;;;;;3725316;37;20167;-52
2021/04/05 12:17:20;;;;;;;;;12.00;11.00;;;;;;;;3725346;38;20154;-50
2021/04/05 12:19:47;;;;;;;;;10.75;10.50;;;;;;;;3726100;38;20244;-54
2021/04/05 12:22:23;;;;;;;;;10.00;10.00;;;;;;;;3726339;37;20150;-50
2021/04/05 12:24:50;;;;;;;;;13.25;11.00;;;;;;;;3726200;37;20111;-51
2021/04/05 12:27:17;;;;;;;;;7.50;7.50;;;;;;;;3726193;38;20140;-49
2021/04/05 12:29:46;;;;;;;;;14.50;12.50;;;;;;;;3725968;37;20106;-50
2021/04/05 12:32:16;;;;;;;;;5.00;5.00;;;;;;;;3726247;37;20136;-50
2021/04/05 12:34:42;;;;;;;;;11.00;9.50;;;;;;;;3725892;37;20100;-50
2021/04/05 12:37:12;;;;;;;;;10.50;9.75;;;;;;;;3725392;37;20090;-51
2021/04/05 12:39:39;;;;;;;;;11.00;10.75;;;;;;;;3725470;37;18026;-55
2021/04/05 12:42:09;;;;;;;;;7.25;7.25;;;;;;;;3725548;37;20231;-53
2021/04/05 12:44:35;;;;;;;;;8.00;8.00;;;;;;;;3725110;37;20075;-53
2021/04/05 12:47:02;;;;;;;;;8.00;8.00;;;;;;;;3725678;37;20152;-51
2021/04/05 12:49:29;;;;;;;;;9.50;7.50;;;;;;;;3725951;38;20078;-51
2021/04/05 12:52:01;;;;;;;;;8.00;8.00;;;;;;;;3725652;38;20086;-56
2021/04/05 12:54:29;;;;;;;;;7.25;6.50;;;;;;;;3723632;37;20094;-53
2021/04/05 12:56:57;;;;;;;;;8.50;7.75;;;;;;;;3724825;38;20049;-52
2021/04/05 12:59:24;;;;;;;;;8.00;8.00;;;;;;;;3725295;37;20076;-52
2021/04/05 13:01:54;;;;;;;;;10.50;8.50;;;;;;;;3725550;38;20060;-51
2021/04/05 13:04:25;;;;;;;;;7.50;7.50;;;;;;;;3725291;38;20091;-52
2021/04/05 13:07:09;;;;;;;;;7.75;7.00;;;;;;;;3724785;38;20058;-51
2021/04/05 13:09:41;;;;;;;;;9.25;9.25;;;;;;;;3725478;37;20122;-51
2021/04/05 13:12:17;;;;;;;;;5.75;5.75;;;;;;;;3725337;37;20070;-53
2021/04/05 13:14:48;;;;;;;;;7.00;6.00;;;;;;;;3725288;38;20087;-52
2021/04/05 13:17:24;;;;;;;;;6.75;6.75;;;;;;;;3724927;37;20349;-53
2021/04/05 13:19:54;;;;;;;;;4.50;4.00;;;;;;;;3725155;37;20071;-52
2021/04/05 13:22:23;;;;;;;;;12.00;12.00;;;;;;;;3725327;37;20071;-53
2021/04/05 13:25:05;;;;;;;;;6.50;6.50;;;;;;;;3725162;38;20118;-51
2021/04/05 13:27:31;;;;;;;;;5.75;5.75;;;;;;;;3725007;38;20053;-52
2021/04/05 13:29:59;;;;;;;;;6.50;6.00;;;;;;;;3725193;38;20131;-52
2021/04/05 13:32:30;;;;;;;;;8.50;6.75;;;;;;;;3725037;37;20042;-51
2021/04/05 13:35:06;;;;;;;;;7.00;6.75;;;;;;;;3725352;37;20055;-54
2021/04/05 13:37:33;;;;;;;;;6.00;6.00;;;;;;;;3725205;37;20120;-51
2021/04/05 13:39:59;;;;;;;;;4.50;4.25;;;;;;;;3725257;38;20038;-51
2021/04/05 13:42:27;;;;;;;;;6.00;6.00;;;;;;;;3725452;38;20014;-52
2021/04/05 13:44:54;;;;;;;;;8.50;7.50;;;;;;;;3725279;37;20015;-52
2021/04/05 13:47:24;;;;;;;;;7.25;7.25;;;;;;;;3725392;37;20044;-53
2021/04/05 13:50:08;;;;;;;;;6.50;5.00;;;;;;;;3725363;38;20025;-51
2021/04/05 13:52:34;;;;;;;;;6.75;6.00;;;;;;;;3725428;37;20058;-52
2021/04/05 13:55:11;;;;;;;;;5.00;5.00;;;;;;;;3725588;38;20010;-52
2021/04/05 13:57:42;;;;;;;;;6.25;6.25;;;;;;;;3725506;38;17937;-52
2021/04/05 14:00:12;;;;;;;;;4.00;4.00;;;;;;;;3725527;38;19997;-55
2021/04/05 14:03:03;;;;;;;;;4.75;4.75;;;;;;;;3725367;37;20018;-55
2021/04/05 14:05:42;;;;;;;;;4.00;4.00;;;;;;;;3725437;38;20032;-56
2021/04/05 14:08:11;;;;;;;;;5.00;5.00;;;;;;;;3725471;38;19984;-55
2021/04/05 14:10:38;;;;;;;;;6.75;6.50;;;;;;;;3725448;38;19993;-55
2021/04/05 14:13:06;;;;;;;;;6.00;5.00;;;;;;;;3725450;37;19984;-54
2021/04/05 14:15:35;;;;;;;;;4.75;4.75;;;;;;;;3725509;37;19979;-54
2021/04/05 14:18:26;;;;;;;;;5.50;5.50;;;;;;;;3725450;38;19940;-55
2021/04/05 14:20:52;;;;;;;;;5.25;5.00;;;;;;;;3725251;38;20090;-54
2021/04/05 14:23:23;;;;;;;;;5.25;5.25;;;;;;;;3725332;37;19967;-55
2021/04/05 14:25:50;;;;;;;;;8.00;8.00;;;;;;;;3724948;38;19971;-54
2021/04/05 14:28:20;;;;;;;;;6.75;6.75;;;;;;;;3725394;38;19965;-54
2021/04/05 14:30:49;;;;;;;;;5.50;5.25;;;;;;;;3725165;37;19954;-55
2021/04/05 14:33:20;;;;;;;;;40.75;33.00;;;;;;;;3725403;38;19995;-54
2021/04/05 14:35:46;;;;;;;;;5.00;5.00;;;;;;;;3725648;37;19996;-56
2021/04/05 14:38:21;;;;;;;;;9.25;8.00;;;;;;;;3725406;37;19966;-58
2021/04/05 14:40:48;;;;;;;;;6.25;5.50;;;;;;;;3725396;38;19972;-56
2021/04/05 14:43:18;;;;;;;;;6.50;5.50;;;;;;;;3725420;37;19949;-53
2021/04/05 14:45:45;;;;;;;;;7.00;5.50;;;;;;;;3725433;37;19947;-54
2021/04/05 14:48:11;;;;;;;;;9.00;8.00;;;;;;;;3725342;37;19950;-54
2021/04/05 14:50:42;;;;;;;;;11.00;10.50;;;;;;;;3725439;38;19921;-55